Tucson, AZ

1:52 PM MST on September 03, 2015 (GMT -0700)
CAID Industries | | Change Station
CLOSE
Current Station
Personal Weather Station
Location: Tucson, AZ
Elevation: 2572 ft
Nearby Weather Stations

Elev 2572 ft 32.14 °N, 110.94 °W | Updated 14 minutes ago

Partly Cloudy
Partly Cloudy
85.0 °F
Feels Like 86 °F
N
10.0
Wind Variable Wind from SSW
Gusts 13.0 mph

Today
High -- | Low -- °F
--% Chance of Precip.
Yesterday
High -- | Low -- °F
Precip. -- in
6:00 AM 6:45 PM
Waning Gibbous, 67% visible
Pressure 29.82 in
Visibility 10.0 miles
Clouds Few 12000 ft
Heat Index 86 °F
Dew Point 63 °F
Humidity 48%
Rainfall 0.00 in
Snow Depth Not available.
UV 10 out of 12
Pollen .70 out of 12
Air Quality Not available.
Flu Activity Not available.
METAR KTUS 031953Z 32010KT 10SM FEW120 29/17 A2996 RMK AO2 LTG DSNT NE AND SE AND W SLP098 T02890172
Pressure 29.82 in
Visibility 10.0 miles
Clouds Few 12000 ft
Heat Index 86 °F
Dew Point 63 °F
Humidity 48%
Rainfall 0.00 in
Snow Depth Not available.
UV 10 out of 12
Pollen .70 out of 12
Air Quality Not available.
Flu Activity Not available.
METAR KTUS 031953Z 32010KT 10SM FEW120 29/17 A2996 RMK AO2 LTG DSNT NE AND SE AND W SLP098 T02890172
Nowcast | as of 1:35 PM MST on September 3, 2015

Showers and thunderstorms continue to gradually increase in coverage across parts of Pima and Santa Cruz counties early this afternoon. Additional thunderstorm development is expected through this afternoon over portions of Cochise...Graham...and Greenlee counties. These showers and storms will be capable of producing heavy rainfall...with amounts of one quarter to three quarters of an inch with localized amounts in excess of one inch...small hail...and wind gusts of 45 mph. Storm motions will be towards the northeast at around 15 mph.

×

10-Day Weather Forecast

×

Almanac

Astronomy

Sep. 03, 2015 Rise Set
Actual Time
Civil Twilight
Nautical Twilight
Astronomical Twilight
Moon
Length of Visible Light
Length of Day
Tomorrow will be .
, % of the Moon is Illuminated

Today's Extremes

State Highs State Lows

Community

WunderPhotos

Upload Photos

1,852,036 photos uploaded!

WunderBlogs® & News

Nearby

Air Quality

  Air Quality AQ Index Pollutant
Not available.

Snow Depth

Station Depth Elevation

Earthquake Activity

City Distance Mag. Time & Date
Minimum magnitude displayed is 2.5.

Coastal Water Temperatures

Place Temperature

Stations

Nearby Weather Stations

Station Location Temp. Windchill Dew Point Humidity Wind Precip. Elev Updated Type